Weather at Brisbane International Airport

Public forecast

Using degrees Celsius for public forecast. Weather courtesy of forecast.io.

Current aviation weather report (METAR) for Brisbane International Airport

Retrieved 2021/04/20 16:00 UTC (1 minute ago):

YBBN 201600Z 34007KT CAVOK 18/15 Q1013

Aviation forecast (TAF) for Brisbane International Airport

Retrieved 2021/04/20 15:43 UTC (18 minutes ago):

TAF YBBN 201405Z 2015/2118 35007KT CAVOK FM202200 29008KT CAVOK FM210200 25010KT CAVOK FM210900 23007KT CAVOK